createdAt,value
2022-12-03T00:00:38.096Z,7.44
2022-12-03T00:03:04.747Z,7.68
2022-12-03T00:05:31.497Z,7.82
2022-12-03T00:07:58.163Z,7.66
2022-12-03T00:10:24.973Z,7.81
2022-12-03T00:12:51.547Z,7.74
2022-12-03T00:15:18.183Z,7.90
2022-12-03T00:17:44.794Z,7.98
2022-12-03T00:20:18.991Z,8.08
2022-12-03T00:22:45.567Z,8.04
2022-12-03T00:25:12.436Z,7.91
2022-12-03T00:27:39.017Z,7.56
2022-12-03T00:30:06.595Z,8.01
2022-12-03T00:32:33.126Z,8.05
2022-12-03T00:34:59.717Z,8.18
2022-12-03T00:37:26.357Z,7.06
2022-12-03T00:39:53.026Z,7.32
2022-12-03T00:42:19.558Z,7.52
2022-12-03T00:44:46.136Z,7.44
2022-12-03T00:47:13.016Z,7.25
2022-12-03T00:49:39.620Z,7.10
2022-12-03T00:52:06.187Z,7.14
2022-12-03T00:54:32.873Z,6.81
2022-12-03T00:56:59.542Z,6.12
2022-12-03T00:59:26.163Z,6.54
2022-12-03T01:01:52.847Z,6.08
2022-12-03T01:04:19.628Z,6.62
2022-12-03T01:06:46.260Z,6.52
2022-12-03T01:09:12.948Z,6.77
2022-12-03T01:11:39.696Z,6.39
2022-12-03T01:14:12.023Z,6.78
2022-12-03T01:16:39.317Z,6.30
2022-12-03T01:19:07.173Z,6.21
2022-12-03T01:21:34.232Z,6.61
2022-12-03T01:24:00.910Z,6.56
2022-12-03T01:26:27.580Z,6.50
2022-12-03T01:28:54.150Z,6.65
2022-12-03T01:31:39.649Z,6.79
2022-12-03T01:34:06.774Z,6.89
2022-12-03T01:36:36.332Z,7.07
2022-12-03T01:39:03.931Z,6.85
2022-12-03T01:41:31.986Z,7.01
2022-12-03T01:43:59.413Z,6.87
2022-12-03T01:46:35.060Z,6.93
2022-12-03T01:49:01.733Z,6.70
2022-12-03T01:51:29.816Z,6.51
2022-12-03T01:54:04.611Z,5.87
2022-12-03T01:56:31.218Z,6.39
2022-12-03T01:58:57.872Z,6.68
2022-12-03T02:01:24.504Z,6.37
2022-12-03T02:03:51.132Z,6.73
2022-12-03T02:06:22.963Z,6.41
2022-12-03T02:08:51.144Z,6.40
2022-12-03T02:11:33.218Z,6.50
2022-12-03T02:14:03.276Z,6.41
2022-12-03T02:16:30.808Z,6.60
2022-12-03T02:18:58.548Z,6.56
2022-12-03T02:21:35.936Z,6.90
2022-12-03T02:24:16.723Z,6.81
2022-12-03T02:26:43.381Z,7.06
2022-12-03T02:29:10.032Z,7.19
2022-12-03T02:31:36.685Z,7.25
2022-12-03T02:34:11.005Z,7.29
2022-12-03T02:36:38.353Z,7.39
2022-12-03T02:39:05.479Z,7.38
2022-12-03T02:41:51.169Z,7.41
2022-12-03T02:44:17.745Z,7.39
2022-12-03T02:46:44.492Z,7.37
2022-12-03T02:49:11.227Z,7.37
2022-12-03T02:51:37.844Z,7.09
2022-12-03T02:54:04.647Z,7.23
2022-12-03T02:56:33.089Z,6.98
2022-12-03T02:59:03.791Z,6.54
2022-12-03T03:01:30.787Z,7.07
2022-12-03T03:03:58.480Z,7.04
2022-12-03T03:06:25.334Z,7.11
2022-12-03T03:08:52.421Z,7.19
2022-12-03T03:11:19.218Z,6.89
2022-12-03T03:13:46.174Z,7.15
2022-12-03T03:16:12.921Z,7.02
2022-12-03T03:18:40.121Z,7.24
2022-12-03T03:21:07.386Z,7.29
2022-12-03T03:23:34.351Z,7.38
2022-12-03T03:26:06.074Z,7.37
2022-12-03T03:28:36.604Z,7.39
2022-12-03T03:31:05.519Z,7.48
2022-12-03T03:33:32.884Z,7.20
2022-12-03T03:36:00.566Z,7.47
2022-12-03T03:38:29.095Z,7.38
2022-12-03T03:40:58.066Z,7.26
2022-12-03T03:43:25.222Z,6.92
2022-12-03T03:45:53.759Z,7.15
2022-12-03T03:48:22.055Z,6.75
2022-12-03T03:50:50.827Z,6.25
2022-12-03T03:53:18.090Z,6.66
2022-12-03T03:55:45.180Z,6.65
2022-12-03T03:58:11.950Z,6.59
2022-12-03T04:00:39.053Z,6.63
2022-12-03T04:03:06.335Z,6.14
2022-12-03T04:05:33.242Z,6.43
2022-12-03T04:08:00.000Z,6.74
2022-12-03T04:10:45.257Z,6.79
2022-12-03T04:13:11.841Z,6.61
2022-12-03T04:15:38.408Z,6.59
2022-12-03T04:18:23.384Z,6.54
2022-12-03T04:20:49.998Z,6.46
2022-12-03T04:23:16.605Z,6.29
2022-12-03T04:26:02.102Z,6.05
2022-12-03T04:28:46.932Z,6.50
2022-12-03T04:31:31.935Z,6.44
2022-12-03T04:34:16.844Z,6.47
2022-12-03T04:36:43.490Z,6.53
2022-12-03T04:39:10.105Z,6.60
2022-12-03T04:41:36.654Z,6.57
2022-12-03T04:44:21.816Z,6.13
2022-12-03T04:46:48.356Z,6.28
2022-12-03T04:49:14.963Z,6.32
2022-12-03T04:51:41.538Z,6.38
2022-12-03T04:54:08.125Z,6.10
2022-12-03T04:56:34.731Z,6.69
2022-12-03T04:59:01.464Z,6.40
2022-12-03T05:01:28.140Z,6.32
2022-12-03T05:03:54.784Z,6.18
2022-12-03T05:06:21.921Z,5.88
2022-12-03T05:08:48.656Z,6.12
2022-12-03T05:11:15.248Z,6.18
2022-12-03T05:13:43.128Z,6.15
2022-12-03T05:16:10.510Z,6.19
2022-12-03T05:18:37.317Z,6.08
2022-12-03T05:21:04.105Z,6.15
2022-12-03T05:23:30.722Z,5.96
2022-12-03T05:25:57.252Z,6.10
2022-12-03T05:28:24.386Z,6.22
2022-12-03T05:30:51.671Z,6.45
2022-12-03T05:33:18.671Z,6.53
2022-12-03T05:35:45.227Z,6.69
2022-12-03T05:38:11.908Z,6.70
2022-12-03T05:40:38.614Z,6.72
2022-12-03T05:43:05.369Z,6.24
2022-12-03T05:45:34.519Z,6.83
2022-12-03T05:48:01.860Z,7.08
2022-12-03T05:50:30.927Z,7.10
2022-12-03T05:52:58.331Z,7.24
2022-12-03T05:55:25.879Z,7.24
2022-12-03T05:57:52.700Z,6.83
2022-12-03T06:00:25.053Z,6.90
2022-12-03T06:02:52.026Z,7.19
2022-12-03T06:05:19.757Z,7.25
2022-12-03T06:07:48.046Z,7.27
2022-12-03T06:10:16.819Z,7.35
2022-12-03T06:12:43.671Z,7.38
2022-12-03T06:15:11.232Z,7.42
2022-12-03T06:17:37.995Z,7.12
2022-12-03T06:20:05.108Z,7.24
2022-12-03T06:22:31.670Z,7.58
2022-12-03T06:25:03.413Z,7.53
2022-12-03T06:27:32.906Z,7.47
2022-12-03T06:29:59.660Z,7.70
2022-12-03T06:32:26.273Z,7.62
2022-12-03T06:34:53.362Z,7.63
2022-12-03T06:37:20.078Z,7.60
2022-12-03T06:39:46.627Z,7.62
2022-12-03T06:42:13.211Z,7.63
2022-12-03T06:44:39.842Z,7.65
2022-12-03T06:47:06.425Z,7.69
2022-12-03T06:49:33.264Z,7.61
2022-12-03T06:51:59.889Z,7.07
2022-12-03T06:54:26.511Z,7.07
2022-12-03T06:56:53.178Z,7.19
2022-12-03T06:59:19.793Z,7.36
2022-12-03T07:01:46.426Z,7.65
2022-12-03T07:04:13.105Z,7.51
2022-12-03T07:06:39.650Z,7.67
2022-12-03T07:09:06.299Z,7.81
2022-12-03T07:11:32.948Z,7.83
2022-12-03T07:14:05.114Z,7.63
2022-12-03T07:16:32.861Z,7.79
2022-12-03T07:18:59.559Z,8.00
2022-12-03T07:21:26.114Z,8.08
2022-12-03T07:23:52.661Z,7.53
2022-12-03T07:26:19.374Z,7.47
2022-12-03T07:28:48.312Z,7.46
2022-12-03T07:31:15.438Z,7.35
2022-12-03T07:33:42.444Z,7.81
2022-12-03T07:36:09.897Z,8.00
2022-12-03T07:38:36.558Z,8.01
2022-12-03T07:41:03.367Z,8.16
2022-12-03T07:43:29.962Z,7.84
2022-12-03T07:45:56.572Z,8.08
2022-12-03T07:48:23.170Z,7.94
2022-12-03T07:50:49.785Z,8.22
2022-12-03T07:53:16.396Z,8.52
2022-12-03T07:55:43.118Z,8.76
2022-12-03T07:58:09.778Z,8.62
2022-12-03T08:00:36.377Z,8.43
2022-12-03T08:03:03.182Z,8.38
2022-12-03T08:05:29.938Z,9.07
2022-12-03T08:07:56.905Z,9.11
2022-12-03T08:10:25.745Z,9.18
2022-12-03T08:12:53.756Z,8.94
2022-12-03T08:15:25.317Z,9.38
2022-12-03T08:17:55.893Z,9.38
2022-12-03T08:20:25.056Z,9.50
2022-12-03T08:22:53.185Z,9.05
2022-12-03T08:25:27.382Z,9.82
2022-12-03T08:28:03.411Z,9.88
2022-12-03T08:30:29.990Z,9.55
2022-12-03T08:32:58.533Z,9.93
2022-12-03T08:35:28.076Z,10.13
2022-12-03T08:38:00.790Z,10.20
2022-12-03T08:40:36.361Z,10.49
2022-12-03T08:43:18.324Z,10.13
2022-12-03T08:45:45.416Z,8.99
2022-12-03T08:48:27.177Z,8.76
2022-12-03T08:50:56.581Z,8.74
2022-12-03T08:53:37.012Z,9.55
2022-12-03T08:56:13.735Z,9.34
2022-12-03T08:58:46.179Z,9.26
2022-12-03T09:01:12.724Z,9.03
2022-12-03T09:03:49.005Z,7.91
2022-12-03T09:06:15.734Z,8.64
2022-12-03T09:08:42.274Z,9.10
2022-12-03T09:11:08.892Z,8.88
2022-12-03T09:13:35.520Z,8.89
2022-12-03T09:16:02.095Z,8.86
2022-12-03T09:18:28.681Z,9.12
2022-12-03T09:20:56.473Z,9.75
2022-12-03T09:23:23.606Z,9.60
2022-12-03T09:25:50.308Z,9.25
2022-12-03T09:28:17.086Z,9.40
2022-12-03T09:30:43.844Z,9.46
2022-12-03T09:33:10.670Z,10.24
2022-12-03T09:35:37.275Z,10.14
2022-12-03T09:38:03.859Z,8.79
2022-12-03T09:40:30.470Z,9.59
2022-12-03T09:43:00.882Z,10.09
2022-12-03T09:45:27.457Z,10.25
2022-12-03T09:47:55.063Z,10.42
2022-12-03T09:50:26.633Z,10.67
2022-12-03T09:52:56.730Z,10.39
2022-12-03T09:55:26.858Z,9.98
2022-12-03T09:57:54.838Z,9.48
2022-12-03T10:00:28.465Z,9.62
2022-12-03T10:02:58.138Z,9.76
2022-12-03T10:05:24.996Z,9.94
2022-12-03T10:07:52.863Z,10.50
2022-12-03T10:10:25.178Z,10.70
2022-12-03T10:12:52.773Z,10.78
2022-12-03T10:15:23.007Z,10.95
2022-12-03T10:17:51.695Z,10.93
2022-12-03T10:20:20.470Z,10.66
2022-12-03T10:22:48.878Z,11.19
2022-12-03T10:25:19.254Z,11.09
2022-12-03T10:28:03.879Z,11.38
2022-12-03T10:30:30.704Z,11.36
2022-12-03T10:32:59.079Z,11.22
2022-12-03T10:35:37.707Z,11.31
2022-12-03T10:38:19.703Z,11.29
2022-12-03T10:40:46.525Z,11.46
2022-12-03T10:43:24.971Z,11.42
2022-12-03T10:46:11.213Z,11.48
2022-12-03T10:48:38.513Z,11.46
2022-12-03T10:51:10.378Z,11.27
2022-12-03T10:53:40.564Z,11.39
2022-12-03T10:56:13.788Z,11.63
2022-12-03T10:58:40.649Z,11.73
2022-12-03T11:01:16.205Z,11.76
2022-12-03T11:03:43.147Z,11.33
2022-12-03T11:06:18.787Z,11.61
2022-12-03T11:08:56.263Z,11.64
2022-12-03T11:11:31.056Z,11.53
2022-12-03T11:14:02.357Z,11.53
2022-12-03T11:16:41.205Z,11.44
2022-12-03T11:19:17.539Z,11.27
2022-12-03T11:22:05.877Z,11.33
2022-12-03T11:24:37.430Z,11.43
2022-12-03T11:27:03.944Z,11.39
2022-12-03T11:29:49.418Z,11.22
2022-12-03T11:32:43.484Z,10.95
2022-12-03T11:35:13.051Z,11.12
2022-12-03T11:37:39.736Z,11.15
2022-12-03T11:40:18.533Z,11.25
2022-12-03T11:42:47.328Z,11.21
2022-12-03T11:45:19.246Z,11.27
2022-12-03T11:47:59.504Z,11.38
2022-12-03T11:50:51.062Z,11.35
2022-12-03T11:53:22.691Z,11.40
2022-12-03T11:56:06.347Z,11.22
2022-12-03T11:58:33.571Z,11.49
2022-12-03T12:01:03.622Z,11.31
2022-12-03T12:03:36.089Z,11.25
2022-12-03T12:06:16.041Z,11.47
2022-12-03T12:08:51.628Z,11.49
2022-12-03T12:11:31.890Z,11.37
2022-12-03T12:14:00.958Z,11.39
2022-12-03T12:16:52.085Z,11.27
2022-12-03T12:19:38.748Z,11.26
2022-12-03T12:22:31.907Z,11.22
2022-12-03T12:25:01.458Z,11.15
2022-12-03T12:27:45.213Z,11.28
2022-12-03T12:30:15.918Z,11.23
2022-12-03T12:32:50.110Z,11.17
2022-12-03T12:35:24.578Z,11.25
2022-12-03T12:38:00.092Z,11.06
2022-12-03T12:40:32.910Z,11.14
2022-12-03T12:43:20.302Z,11.04
2022-12-03T12:45:51.448Z,10.83
2022-12-03T12:48:27.160Z,10.92
2022-12-03T12:51:00.193Z,10.73
2022-12-03T12:53:31.565Z,10.63
2022-12-03T12:56:20.698Z,10.65
2022-12-03T12:58:47.403Z,10.39
2022-12-03T13:01:24.941Z,10.30
2022-12-03T13:03:52.665Z,10.41
2022-12-03T13:06:25.851Z,10.51
2022-12-03T13:08:53.667Z,10.54
2022-12-03T13:11:42.271Z,10.56
2022-12-03T13:14:19.332Z,10.58
2022-12-03T13:16:47.838Z,9.99
2022-12-03T13:19:28.673Z,10.44
2022-12-03T13:22:16.883Z,10.45
2022-12-03T13:24:45.434Z,10.50
2022-12-03T13:27:17.809Z,10.37
2022-12-03T13:29:50.740Z,10.36
2022-12-03T13:32:27.639Z,10.51
2022-12-03T13:35:00.991Z,10.44
2022-12-03T13:37:28.259Z,10.45
2022-12-03T13:39:57.426Z,10.38
2022-12-03T13:42:39.512Z,10.36
2022-12-03T13:45:31.378Z,10.28
2022-12-03T13:48:02.980Z,10.28
2022-12-03T13:50:46.010Z,10.26
2022-12-03T13:53:38.750Z,10.24
2022-12-03T13:56:27.883Z,10.23
2022-12-03T13:58:56.273Z,9.39
2022-12-03T14:01:23.164Z,9.93
2022-12-03T14:03:50.210Z,10.25
2022-12-03T14:06:16.785Z,10.11
2022-12-03T14:08:43.663Z,9.95
2022-12-03T14:11:30.575Z,9.67
2022-12-03T14:13:57.362Z,9.91
2022-12-03T14:16:24.521Z,9.91
2022-12-03T14:18:51.255Z,10.07
2022-12-03T14:21:18.467Z,10.13
2022-12-03T14:23:45.195Z,10.08
2022-12-03T14:26:11.817Z,9.88
2022-12-03T14:28:38.422Z,10.09
2022-12-03T14:31:05.218Z,9.93
2022-12-03T14:33:31.768Z,9.85
2022-12-03T14:35:58.872Z,9.93
2022-12-03T14:38:25.480Z,9.77
2022-12-03T14:40:52.076Z,9.74
2022-12-03T14:43:18.610Z,9.65
2022-12-03T14:45:45.428Z,9.47
2022-12-03T14:48:12.130Z,9.55
2022-12-03T14:50:38.694Z,9.62
2022-12-03T14:53:05.226Z,9.56
2022-12-03T14:55:31.888Z,9.45
2022-12-03T14:57:58.470Z,9.11
2022-12-03T15:00:25.060Z,9.52
2022-12-03T15:02:51.696Z,9.33
2022-12-03T15:05:22.110Z,9.50
2022-12-03T15:07:53.219Z,9.52
2022-12-03T15:10:19.810Z,9.62
2022-12-03T15:12:46.388Z,9.60
2022-12-03T15:15:12.968Z,9.46
2022-12-03T15:17:39.646Z,9.56
2022-12-03T15:20:08.163Z,9.54
2022-12-03T15:22:34.746Z,9.59
2022-12-03T15:25:02.722Z,9.51
2022-12-03T15:27:29.380Z,9.59
2022-12-03T15:29:56.149Z,9.74
2022-12-03T15:32:22.935Z,9.72
2022-12-03T15:34:51.338Z,9.46
2022-12-03T15:37:18.349Z,9.56
2022-12-03T15:39:48.517Z,9.55
2022-12-03T15:42:15.551Z,9.53
2022-12-03T15:44:42.115Z,9.39
2022-12-03T15:47:08.697Z,9.39
2022-12-03T15:49:35.220Z,9.15
2022-12-03T15:52:01.810Z,8.87
2022-12-03T15:54:28.385Z,9.25
2022-12-03T15:56:57.417Z,8.95
2022-12-03T15:59:24.819Z,9.40
2022-12-03T16:01:51.528Z,9.03
2022-12-03T16:04:18.201Z,9.31
2022-12-03T16:06:44.774Z,9.30
2022-12-03T16:09:11.385Z,9.25
2022-12-03T16:11:37.950Z,9.32
2022-12-03T16:14:04.512Z,9.37
2022-12-03T16:16:31.196Z,9.34
2022-12-03T16:18:57.894Z,8.60
2022-12-03T16:21:27.095Z,9.36
2022-12-03T16:23:54.378Z,9.38
2022-12-03T16:26:21.173Z,9.28
2022-12-03T16:28:47.808Z,9.33
2022-12-03T16:31:14.468Z,9.40
2022-12-03T16:33:41.089Z,9.29
2022-12-03T16:36:08.108Z,9.27
2022-12-03T16:38:34.758Z,9.27
2022-12-03T16:41:02.196Z,8.85
2022-12-03T16:43:28.790Z,9.17
2022-12-03T16:46:24.556Z,9.13
2022-12-03T16:48:52.316Z,9.06
2022-12-03T16:51:19.729Z,9.05
2022-12-03T16:53:46.954Z,9.07
2022-12-03T16:56:13.827Z,8.73
2022-12-03T16:58:40.717Z,8.61
2022-12-03T17:01:07.391Z,9.06
2022-12-03T17:03:34.386Z,8.71
2022-12-03T17:06:01.499Z,9.11
2022-12-03T17:08:28.420Z,8.70
2022-12-03T17:10:55.171Z,8.90
2022-12-03T17:13:23.252Z,8.87
2022-12-03T17:15:50.528Z,8.81
2022-12-03T17:18:17.400Z,8.72
2022-12-03T17:20:44.014Z,8.55
2022-12-03T17:23:11.843Z,7.87
2022-12-03T17:25:38.474Z,8.63
2022-12-03T17:28:05.140Z,8.74
2022-12-03T17:30:31.782Z,8.11
2022-12-03T17:32:58.339Z,8.80
2022-12-03T17:35:25.265Z,8.84
2022-12-03T17:37:51.818Z,8.76
2022-12-03T17:40:18.484Z,8.67
2022-12-03T17:42:45.113Z,8.80
2022-12-03T17:45:11.955Z,8.76
2022-12-03T17:47:38.775Z,8.80
2022-12-03T17:50:06.183Z,8.73
2022-12-03T17:52:32.759Z,8.81
2022-12-03T17:55:11.249Z,8.42
2022-12-03T17:57:39.721Z,8.68
2022-12-03T18:00:07.270Z,8.69
2022-12-03T18:02:33.844Z,8.67
2022-12-03T18:05:00.453Z,8.78
2022-12-03T18:07:27.124Z,8.69
2022-12-03T18:09:53.959Z,8.66
2022-12-03T18:12:20.843Z,8.75
2022-12-03T18:14:47.388Z,8.75
2022-12-03T18:17:14.422Z,8.76
2022-12-03T18:19:41.011Z,8.80
2022-12-03T18:22:07.799Z,8.78
2022-12-03T18:24:34.802Z,8.44
2022-12-03T18:27:01.326Z,8.86
2022-12-03T18:29:28.364Z,8.52
2022-12-03T18:31:55.083Z,8.73
2022-12-03T18:34:21.709Z,8.82
2022-12-03T18:36:48.970Z,8.85
2022-12-03T18:39:28.045Z,8.83
2022-12-03T18:41:54.729Z,8.75
2022-12-03T18:44:21.513Z,8.37
2022-12-03T18:46:55.495Z,8.58
2022-12-03T18:49:22.390Z,8.57
2022-12-03T18:51:51.199Z,8.07
2022-12-03T18:54:20.979Z,8.51
2022-12-03T18:56:47.591Z,8.39
2022-12-03T18:59:14.191Z,8.48
2022-12-03T19:01:40.857Z,8.51
2022-12-03T19:04:09.514Z,8.49
2022-12-03T19:06:36.181Z,8.44
2022-12-03T19:09:02.827Z,8.32
2022-12-03T19:11:29.398Z,8.08
2022-12-03T19:13:57.398Z,8.55
2022-12-03T19:16:24.508Z,8.51
2022-12-03T19:18:53.113Z,8.26
2022-12-03T19:21:19.762Z,8.44
2022-12-03T19:24:16.011Z,8.35
2022-12-03T19:26:33.045Z,8.36
2022-12-03T19:28:59.677Z,8.43
2022-12-03T19:31:26.300Z,8.45
2022-12-03T19:33:54.345Z,8.47
2022-12-03T19:36:22.579Z,8.47
2022-12-03T19:38:56.629Z,8.53
2022-12-03T19:41:27.412Z,8.53
2022-12-03T19:43:56.018Z,8.59
2022-12-03T19:46:25.907Z,8.58
2022-12-03T19:48:54.063Z,8.61
2022-12-03T19:51:34.209Z,8.33
2022-12-03T19:54:01.794Z,8.68
2022-12-03T19:56:30.473Z,8.40
2022-12-03T19:58:57.453Z,8.45
2022-12-03T20:01:27.818Z,8.63
2022-12-03T20:03:56.209Z,8.63
2022-12-03T20:06:25.433Z,8.48
2022-12-03T20:08:57.060Z,8.41
2022-12-03T20:11:27.041Z,8.46
2022-12-03T20:13:56.392Z,8.49
2022-12-03T20:16:23.941Z,8.52
2022-12-03T20:18:51.767Z,8.54
2022-12-03T20:21:19.538Z,8.53
2022-12-03T20:23:47.158Z,8.17
2022-12-03T20:26:19.086Z,8.18
2022-12-03T20:28:48.077Z,8.65
2022-12-03T20:31:17.424Z,8.62
2022-12-03T20:33:46.682Z,8.60
2022-12-03T20:36:14.667Z,8.36
2022-12-03T20:38:41.501Z,8.49
2022-12-03T20:41:11.045Z,8.06
2022-12-03T20:43:37.782Z,7.94
2022-12-03T20:46:16.942Z,7.58
2022-12-03T20:48:44.688Z,7.86
2022-12-03T20:51:14.349Z,7.47
2022-12-03T20:53:42.058Z,7.66
2022-12-03T20:56:10.573Z,7.64
2022-12-03T20:58:37.412Z,7.35
2022-12-03T21:01:21.188Z,7.08
2022-12-03T21:03:49.614Z,7.38
2022-12-03T21:06:16.902Z,6.95
2022-12-03T21:08:44.074Z,6.63
2022-12-03T21:11:19.017Z,7.00
2022-12-03T21:13:46.823Z,7.06
2022-12-03T21:16:16.252Z,7.33
2022-12-03T21:18:43.346Z,6.89
2022-12-03T21:21:12.079Z,7.34
2022-12-03T21:23:39.427Z,7.19
2022-12-03T21:26:15.427Z,7.30
2022-12-03T21:28:44.416Z,7.47
2022-12-03T21:31:14.539Z,7.52
2022-12-03T21:33:41.539Z,7.17
2022-12-03T21:36:08.664Z,6.87
2022-12-03T21:38:36.204Z,7.35
2022-12-03T21:41:03.734Z,6.27
2022-12-03T21:43:30.917Z,7.06
2022-12-03T21:45:57.594Z,6.49
2022-12-03T21:48:24.361Z,6.82
2022-12-03T21:51:12.301Z,6.62
2022-12-03T21:53:43.475Z,6.53
2022-12-03T21:56:15.984Z,6.45
2022-12-03T21:58:43.490Z,6.76
2022-12-03T22:01:11.719Z,6.93
2022-12-03T22:03:38.509Z,6.54
2022-12-03T22:06:05.283Z,6.57
2022-12-03T22:08:31.792Z,6.55
2022-12-03T22:10:58.336Z,6.66
2022-12-03T22:13:24.898Z,6.51
2022-12-03T22:15:51.520Z,6.18
2022-12-03T22:18:18.200Z,6.48
2022-12-03T22:20:44.775Z,6.88
2022-12-03T22:23:11.298Z,6.60
2022-12-03T22:25:37.857Z,6.42
2022-12-03T22:28:04.533Z,6.39
2022-12-03T22:30:31.231Z,6.51
2022-12-03T22:32:57.884Z,6.42
2022-12-03T22:35:24.477Z,6.14
2022-12-03T22:37:51.108Z,6.50
2022-12-03T22:40:17.792Z,6.66
2022-12-03T22:42:50.629Z,6.82
2022-12-03T22:45:17.599Z,6.61
2022-12-03T22:47:44.138Z,6.60
2022-12-03T22:50:10.911Z,6.12
2022-12-03T22:52:37.526Z,6.28
2022-12-03T22:55:04.421Z,6.61
2022-12-03T22:57:31.776Z,6.18
2022-12-03T22:59:58.367Z,6.07
2022-12-03T23:02:24.967Z,6.55
2022-12-03T23:04:55.350Z,6.44
2022-12-03T23:07:21.924Z,6.18
2022-12-03T23:09:48.547Z,6.41
2022-12-03T23:12:15.355Z,5.98
2022-12-03T23:14:41.926Z,6.32
2022-12-03T23:17:08.464Z,5.88
2022-12-03T23:19:35.489Z,6.26
2022-12-03T23:22:02.046Z,6.33
2022-12-03T23:24:29.037Z,6.08
2022-12-03T23:26:55.673Z,5.86
2022-12-03T23:29:22.401Z,6.41
2022-12-03T23:31:49.040Z,6.43
2022-12-03T23:34:15.751Z,6.53
2022-12-03T23:36:42.572Z,6.39
2022-12-03T23:39:09.162Z,6.41
2022-12-03T23:41:36.211Z,6.37
2022-12-03T23:44:02.801Z,6.16
2022-12-03T23:46:29.661Z,6.18
2022-12-03T23:48:58.889Z,6.23
2022-12-03T23:51:25.772Z,6.19
2022-12-03T23:53:54.263Z,6.24
2022-12-03T23:56:26.187Z,5.34
2022-12-03T23:58:52.812Z,5.93
